createdAt,value
2018-09-25T00:00:13.815Z,935.24
2018-09-25T00:01:13.683Z,935.21
2018-09-25T00:02:13.669Z,935.20
2018-09-25T00:03:13.680Z,935.22
2018-09-25T00:04:13.668Z,935.21
2018-09-25T00:05:13.664Z,935.21
2018-09-25T00:06:13.958Z,935.23
2018-09-25T00:07:13.596Z,935.26
2018-09-25T00:08:13.627Z,935.27
2018-09-25T00:09:13.619Z,935.25
2018-09-25T00:10:13.624Z,935.28
2018-09-25T00:11:13.606Z,935.30
2018-09-25T00:12:13.968Z,935.30
2018-09-25T00:13:13.567Z,935.33
2018-09-25T00:14:13.570Z,935.32
2018-09-25T00:15:13.584Z,935.37
2018-09-25T00:16:13.565Z,935.37
2018-09-25T00:17:13.515Z,935.37
2018-09-25T00:18:13.588Z,935.43
2018-09-25T00:19:13.500Z,935.46
2018-09-25T00:20:13.512Z,935.43
2018-09-25T00:21:13.495Z,935.48
2018-09-25T00:22:13.486Z,935.47
2018-09-25T00:23:13.636Z,935.48
2018-09-25T00:24:13.501Z,935.46
2018-09-25T00:25:13.461Z,935.50
2018-09-25T00:26:13.417Z,935.48
2018-09-25T00:27:13.405Z,935.51
2018-09-25T00:28:13.422Z,935.52
2018-09-25T00:29:13.594Z,935.49
2018-09-25T00:30:13.377Z,935.48
2018-09-25T00:31:13.374Z,935.48
2018-09-25T00:32:13.377Z,935.53
2018-09-25T00:33:13.364Z,935.56
2018-09-25T00:34:13.627Z,935.52
2018-09-25T00:35:13.399Z,935.55
2018-09-25T00:36:13.360Z,935.51
2018-09-25T00:37:13.335Z,935.57
2018-09-25T00:38:13.343Z,935.60
2018-09-25T00:39:13.322Z,935.58
2018-09-25T00:40:13.612Z,935.56
2018-09-25T00:41:13.316Z,935.52
2018-09-25T00:42:13.313Z,935.60
2018-09-25T00:43:13.333Z,935.57
2018-09-25T00:44:13.292Z,935.60
2018-09-25T00:45:13.253Z,935.62
2018-09-25T00:46:13.496Z,935.65
2018-09-25T00:47:13.259Z,935.70
2018-09-25T00:48:13.233Z,935.69
2018-09-25T00:49:13.254Z,935.71
2018-09-25T00:50:13.217Z,935.75
2018-09-25T00:51:13.359Z,935.74
2018-09-25T00:52:13.210Z,935.77
2018-09-25T00:53:13.184Z,935.81
2018-09-25T00:54:13.163Z,935.79
2018-09-25T00:55:13.194Z,935.81
2018-09-25T00:56:13.452Z,935.81
2018-09-25T00:57:13.151Z,935.87
2018-09-25T00:58:13.124Z,935.86
2018-09-25T00:59:13.112Z,935.88
2018-09-25T01:00:13.113Z,935.85
2018-09-25T01:01:13.129Z,935.86
2018-09-25T01:02:13.141Z,935.90
2018-09-25T01:03:13.088Z,935.85
2018-09-25T01:04:13.100Z,935.82
2018-09-25T01:05:13.087Z,935.83
2018-09-25T01:06:13.357Z,935.84
2018-09-25T01:07:13.037Z,935.79
2018-09-25T01:08:13.010Z,935.85
2018-09-25T01:09:13.029Z,935.83
2018-09-25T01:10:13.029Z,935.86
2018-09-25T01:11:13.254Z,935.95
2018-09-25T01:12:12.991Z,935.93
2018-09-25T01:13:12.965Z,935.99
2018-09-25T01:14:12.960Z,935.96
2018-09-25T01:15:12.993Z,935.95
2018-09-25T01:16:12.980Z,935.96
2018-09-25T01:17:12.964Z,935.97
2018-09-25T01:18:12.939Z,935.97
2018-09-25T01:19:13.017Z,935.95
2018-09-25T01:20:12.920Z,935.95
2018-09-25T01:21:12.918Z,935.93
2018-09-25T01:22:12.923Z,935.93
2018-09-25T01:23:12.884Z,935.94
2018-09-25T01:24:12.924Z,935.94
2018-09-25T01:25:12.873Z,935.94
2018-09-25T01:26:12.864Z,935.93
2018-09-25T01:27:12.878Z,935.94
2018-09-25T01:28:12.839Z,935.95
2018-09-25T01:29:12.841Z,935.94
2018-09-25T01:30:12.842Z,935.96
2018-09-25T01:31:12.887Z,935.96
2018-09-25T01:32:12.871Z,935.99
2018-09-25T01:33:12.979Z,935.97
2018-09-25T01:34:12.823Z,935.99
2018-09-25T01:35:12.817Z,936.01
2018-09-25T01:36:12.809Z,936.01
2018-09-25T01:37:12.748Z,936.00
2018-09-25T01:38:12.757Z,936.03
2018-09-25T01:39:12.887Z,936.06
2018-09-25T01:40:12.727Z,936.04
2018-09-25T01:41:12.700Z,936.03
2018-09-25T01:42:12.746Z,936.06
2018-09-25T01:43:12.690Z,936.03
2018-09-25T01:44:12.681Z,936.07
2018-09-25T01:45:12.779Z,936.00
2018-09-25T01:46:12.678Z,936.02
2018-09-25T01:47:12.676Z,936.03
2018-09-25T01:48:12.664Z,935.99
2018-09-25T01:49:12.655Z,936.01
2018-09-25T01:50:12.658Z,936.04
2018-09-25T01:51:12.684Z,936.05
2018-09-25T01:52:12.633Z,936.05
2018-09-25T01:53:12.603Z,936.00
2018-09-25T01:54:12.596Z,936.01
2018-09-25T01:55:12.573Z,935.98
2018-09-25T01:56:12.565Z,936.03
2018-09-25T01:57:12.553Z,935.97
2018-09-25T01:58:12.574Z,935.97
2018-09-25T01:59:12.554Z,935.98
2018-09-25T02:00:12.551Z,935.98
2018-09-25T02:01:12.521Z,935.93
2018-09-25T02:02:12.529Z,935.87
2018-09-25T02:03:12.533Z,935.90
2018-09-25T02:04:12.507Z,935.86
2018-09-25T02:05:12.497Z,935.80
2018-09-25T02:06:12.486Z,935.86
2018-09-25T02:07:12.487Z,935.76
2018-09-25T02:08:12.474Z,935.79
2018-09-25T02:09:12.473Z,935.76
2018-09-25T02:10:12.423Z,935.79
2018-09-25T02:11:12.677Z,935.80
2018-09-25T02:12:12.417Z,935.80
2018-09-25T02:13:12.418Z,935.77
2018-09-25T02:14:12.403Z,935.81
2018-09-25T02:15:12.379Z,935.79
2018-09-25T02:16:12.369Z,935.75
2018-09-25T02:17:12.394Z,935.70
2018-09-25T02:18:12.365Z,935.69
2018-09-25T02:19:12.343Z,935.73
2018-09-25T02:20:12.358Z,935.70
2018-09-25T02:21:12.332Z,935.70
2018-09-25T02:22:12.348Z,935.72
2018-09-25T02:23:12.311Z,935.74
2018-09-25T02:24:12.358Z,935.69
2018-09-25T02:25:12.315Z,935.67
2018-09-25T02:26:12.273Z,935.63
2018-09-25T02:27:12.375Z,935.59
2018-09-25T02:28:12.273Z,935.58
2018-09-25T02:29:12.262Z,935.55
2018-09-25T02:30:12.249Z,935.58
2018-09-25T02:31:12.235Z,935.63
2018-09-25T02:32:12.524Z,935.67
2018-09-25T02:33:12.212Z,935.70
2018-09-25T02:34:12.206Z,935.67
2018-09-25T02:35:12.173Z,935.61
2018-09-25T02:36:12.193Z,935.56
2018-09-25T02:37:12.270Z,935.57
2018-09-25T02:38:12.189Z,935.62
2018-09-25T02:39:12.179Z,935.66
2018-09-25T02:40:12.170Z,935.69
2018-09-25T02:41:12.158Z,935.69
2018-09-25T02:42:12.151Z,935.72
2018-09-25T02:43:12.468Z,935.74
2018-09-25T02:44:12.185Z,935.73
2018-09-25T02:45:12.122Z,935.72
2018-09-25T02:46:12.093Z,935.67
2018-09-25T02:47:12.104Z,935.62
2018-09-25T02:48:12.186Z,935.67
2018-09-25T02:49:12.056Z,935.65
2018-09-25T02:50:12.046Z,935.65
2018-09-25T02:51:12.048Z,935.65
2018-09-25T02:52:12.050Z,935.65
2018-09-25T02:53:12.031Z,935.66
2018-09-25T02:54:12.033Z,935.68
2018-09-25T02:55:12.029Z,935.67
2018-09-25T02:56:12.026Z,935.65
2018-09-25T02:57:12.010Z,935.63
2018-09-25T02:58:11.973Z,935.61
2018-09-25T02:59:12.014Z,935.62
2018-09-25T03:00:11.951Z,935.62
2018-09-25T03:01:11.950Z,935.62
2018-09-25T03:02:11.953Z,935.58
2018-09-25T03:03:11.930Z,935.58
2018-09-25T03:04:11.929Z,935.52
2018-09-25T03:05:11.932Z,935.53
2018-09-25T03:06:11.928Z,935.55
2018-09-25T03:07:11.943Z,935.53
2018-09-25T03:08:11.905Z,935.58
2018-09-25T03:09:11.894Z,935.57
2018-09-25T03:10:11.866Z,935.63
2018-09-25T03:11:11.872Z,935.57
2018-09-25T03:12:11.918Z,935.63
2018-09-25T03:13:11.849Z,935.60
2018-09-25T03:14:11.840Z,935.66
2018-09-25T03:15:11.853Z,935.68
2018-09-25T03:16:11.839Z,935.71
2018-09-25T03:17:11.802Z,935.73
2018-09-25T03:18:11.803Z,935.75
2018-09-25T03:19:11.842Z,935.76
2018-09-25T03:20:11.787Z,935.76
2018-09-25T03:21:11.773Z,935.78
2018-09-25T03:22:11.751Z,935.81
2018-09-25T03:23:11.773Z,935.80
2018-09-25T03:24:11.805Z,935.80
2018-09-25T03:25:11.854Z,935.75
2018-09-25T03:26:11.743Z,935.78
2018-09-25T03:27:11.740Z,935.77
2018-09-25T03:28:11.715Z,935.80
2018-09-25T03:29:11.710Z,935.76
2018-09-25T03:30:11.979Z,935.79
2018-09-25T03:31:11.696Z,935.75
2018-09-25T03:32:11.718Z,935.77
2018-09-25T03:33:11.683Z,935.73
2018-09-25T03:34:11.644Z,935.74
2018-09-25T03:35:11.650Z,935.73
2018-09-25T03:36:11.649Z,935.69
2018-09-25T03:37:11.614Z,935.73
2018-09-25T03:38:11.630Z,935.69
2018-09-25T03:39:11.616Z,935.69
2018-09-25T03:40:11.610Z,935.66
2018-09-25T03:41:11.584Z,935.69
2018-09-25T03:42:11.575Z,935.67
2018-09-25T03:43:11.574Z,935.65
2018-09-25T03:44:11.584Z,935.67
2018-09-25T03:45:11.560Z,935.67
2018-09-25T03:46:11.831Z,935.66
2018-09-25T03:47:11.551Z,935.67
2018-09-25T03:48:11.527Z,935.66
2018-09-25T03:49:11.515Z,935.62
2018-09-25T03:50:11.524Z,935.64
2018-09-25T03:51:11.504Z,935.62
2018-09-25T03:52:11.497Z,935.58
2018-09-25T03:53:11.491Z,935.61
2018-09-25T03:54:11.517Z,935.61
2018-09-25T03:55:11.468Z,935.63
2018-09-25T03:56:11.458Z,935.58
2018-09-25T03:57:11.455Z,935.56
2018-09-25T03:58:11.434Z,935.57
2018-09-25T03:59:11.430Z,935.59
2018-09-25T04:00:11.427Z,935.56
2018-09-25T04:01:11.410Z,935.50
2018-09-25T04:02:11.399Z,935.46
2018-09-25T04:03:11.378Z,935.45
2018-09-25T04:04:11.405Z,935.41
2018-09-25T04:05:11.407Z,935.41
2018-09-25T04:06:11.427Z,935.38
2018-09-25T04:07:11.363Z,935.36
2018-09-25T04:08:11.390Z,935.40
2018-09-25T04:09:11.331Z,935.37
2018-09-25T04:10:11.309Z,935.40
2018-09-25T04:11:11.359Z,935.43
2018-09-25T04:12:11.317Z,935.46
2018-09-25T04:13:11.363Z,935.48
2018-09-25T04:14:11.300Z,935.46
2018-09-25T04:15:11.292Z,935.48
2018-09-25T04:16:11.277Z,935.52
2018-09-25T04:17:11.265Z,935.49
2018-09-25T04:18:11.255Z,935.53
2018-09-25T04:19:11.243Z,935.52
2018-09-25T04:20:11.223Z,935.48
2018-09-25T04:21:11.214Z,935.49
2018-09-25T04:22:11.319Z,935.49
2018-09-25T04:23:11.245Z,935.48
2018-09-25T04:24:11.205Z,935.46
2018-09-25T04:25:11.206Z,935.48
2018-09-25T04:26:11.174Z,935.43
2018-09-25T04:27:11.163Z,935.40
2018-09-25T04:28:11.255Z,935.36
2018-09-25T04:29:11.139Z,935.32
2018-09-25T04:30:11.160Z,935.30
2018-09-25T04:31:11.125Z,935.34
2018-09-25T04:32:11.126Z,935.35
2018-09-25T04:33:11.104Z,935.33
2018-09-25T04:34:11.335Z,935.37
2018-09-25T04:35:11.105Z,935.35
2018-09-25T04:36:11.071Z,935.34
2018-09-25T04:37:11.100Z,935.41
2018-09-25T04:38:11.083Z,935.41
2018-09-25T04:39:11.068Z,935.41
2018-09-25T04:40:11.289Z,935.35
2018-09-25T04:41:11.055Z,935.35
2018-09-25T04:42:11.045Z,935.29
2018-09-25T04:43:11.023Z,935.25
2018-09-25T04:44:11.010Z,935.25
2018-09-25T04:45:10.999Z,935.25
2018-09-25T04:46:11.254Z,935.31
2018-09-25T04:47:10.991Z,935.29
2018-09-25T04:48:11.026Z,935.27
2018-09-25T04:49:10.961Z,935.31
2018-09-25T04:50:10.973Z,935.35
2018-09-25T04:51:10.963Z,935.32
2018-09-25T04:52:10.951Z,935.36
2018-09-25T04:53:10.952Z,935.27
2018-09-25T04:54:10.935Z,935.26
2018-09-25T04:55:10.913Z,935.27
2018-09-25T04:56:10.919Z,935.28
2018-09-25T04:57:11.113Z,935.24
2018-09-25T04:58:10.900Z,935.31
2018-09-25T04:59:10.871Z,935.26
2018-09-25T05:00:10.884Z,935.18
2018-09-25T05:01:10.870Z,935.14
2018-09-25T05:02:10.850Z,935.07
2018-09-25T05:03:11.053Z,935.07
2018-09-25T05:04:10.821Z,935.08
2018-09-25T05:05:10.815Z,935.02
2018-09-25T05:06:10.829Z,934.98
2018-09-25T05:07:10.813Z,935.05
2018-09-25T05:08:11.070Z,935.00
2018-09-25T05:09:10.779Z,935.01
2018-09-25T05:10:10.766Z,934.99
2018-09-25T05:11:10.767Z,935.01
2018-09-25T05:12:10.803Z,935.03
2018-09-25T05:13:10.835Z,935.03
2018-09-25T05:14:10.744Z,935.03
2018-09-25T05:15:10.736Z,935.08
2018-09-25T05:16:10.705Z,935.12
2018-09-25T05:17:10.693Z,935.11
2018-09-25T05:18:10.764Z,935.18
2018-09-25T05:19:10.837Z,935.12
2018-09-25T05:20:10.690Z,935.16
2018-09-25T05:21:10.659Z,935.17
2018-09-25T05:22:10.668Z,935.16
2018-09-25T05:23:10.638Z,935.17
2018-09-25T05:24:10.647Z,935.12
2018-09-25T05:25:10.722Z,935.16
2018-09-25T05:26:10.634Z,935.17
2018-09-25T05:27:10.626Z,935.21
2018-09-25T05:28:10.607Z,935.18
2018-09-25T05:29:10.605Z,935.20
2018-09-25T05:30:10.600Z,935.16
2018-09-25T05:31:10.679Z,935.17
2018-09-25T05:32:10.571Z,935.14
2018-09-25T05:33:10.553Z,935.13
2018-09-25T05:34:10.557Z,935.16
2018-09-25T05:35:10.579Z,935.10
2018-09-25T05:36:10.525Z,935.09
2018-09-25T05:37:10.808Z,935.02
2018-09-25T05:38:10.495Z,934.99
2018-09-25T05:39:10.500Z,935.00
2018-09-25T05:40:10.487Z,934.88
2018-09-25T05:41:10.489Z,934.89
2018-09-25T05:42:10.462Z,934.88
2018-09-25T05:43:10.479Z,934.87
2018-09-25T05:44:10.466Z,934.84
2018-09-25T05:45:10.462Z,934.86
2018-09-25T05:46:10.447Z,934.80
2018-09-25T05:47:10.436Z,934.80
2018-09-25T05:48:10.477Z,934.77
2018-09-25T05:49:10.421Z,934.76
2018-09-25T05:50:10.390Z,934.74
2018-09-25T05:51:10.408Z,934.70
2018-09-25T05:52:10.365Z,934.63
2018-09-25T05:53:10.392Z,934.55
2018-09-25T05:54:10.362Z,934.51
2018-09-25T05:55:10.370Z,934.40
2018-09-25T05:56:10.343Z,934.32
2018-09-25T05:57:10.343Z,934.25
2018-09-25T05:58:10.615Z,934.26
2018-09-25T05:59:10.328Z,934.20
2018-09-25T06:00:10.343Z,934.24
2018-09-25T06:01:10.395Z,934.22
2018-09-25T06:02:10.291Z,934.25
2018-09-25T06:03:10.290Z,934.29
2018-09-25T06:04:10.286Z,934.27
2018-09-25T06:05:10.244Z,934.34
2018-09-25T06:06:10.292Z,934.35
2018-09-25T06:07:10.247Z,934.37
2018-09-25T06:08:10.234Z,934.34
2018-09-25T06:09:10.242Z,934.35
2018-09-25T06:10:10.211Z,934.34
2018-09-25T06:11:10.217Z,934.39
2018-09-25T06:12:10.212Z,934.39
2018-09-25T06:13:10.195Z,934.43
2018-09-25T06:14:10.476Z,934.46
2018-09-25T06:15:10.184Z,934.50
2018-09-25T06:16:10.199Z,934.50
2018-09-25T06:17:10.193Z,934.43
2018-09-25T06:18:10.156Z,934.44
2018-09-25T06:19:10.145Z,934.42
2018-09-25T06:20:10.159Z,934.46
2018-09-25T06:21:10.110Z,934.39
2018-09-25T06:22:10.102Z,934.38
2018-09-25T06:23:10.172Z,934.35
2018-09-25T06:24:10.101Z,934.35
2018-09-25T06:25:10.464Z,934.31
2018-09-25T06:26:10.083Z,934.29
2018-09-25T06:27:10.094Z,934.28
2018-09-25T06:28:10.054Z,934.28
2018-09-25T06:29:10.050Z,934.31
2018-09-25T06:30:10.293Z,934.25
2018-09-25T06:31:10.015Z,934.28
2018-09-25T06:32:10.019Z,934.25
2018-09-25T06:33:10.058Z,934.28
2018-09-25T06:34:09.986Z,934.29
2018-09-25T06:35:09.969Z,934.26
2018-09-25T06:36:10.021Z,934.24
2018-09-25T06:37:10.006Z,934.30
2018-09-25T06:38:09.962Z,934.25
2018-09-25T06:39:09.940Z,934.23
2018-09-25T06:40:09.927Z,934.31
2018-09-25T06:41:10.030Z,934.26
2018-09-25T06:42:09.937Z,934.21
2018-09-25T06:43:09.910Z,934.20
2018-09-25T06:44:09.894Z,934.23
2018-09-25T06:45:09.911Z,934.19
2018-09-25T06:46:10.190Z,934.21
2018-09-25T06:47:09.972Z,934.13
2018-09-25T06:48:09.903Z,934.12
2018-09-25T06:49:09.861Z,934.11
2018-09-25T06:50:09.858Z,934.09
2018-09-25T06:51:09.946Z,934.08
2018-09-25T06:52:09.847Z,934.06
2018-09-25T06:53:09.826Z,934.02
2018-09-25T06:54:09.817Z,933.97
2018-09-25T06:55:09.821Z,934.01
2018-09-25T06:56:09.776Z,933.98
2018-09-25T06:57:09.918Z,933.96
2018-09-25T06:58:09.764Z,933.99
2018-09-25T06:59:09.791Z,934.02
2018-09-25T07:00:09.817Z,934.08
2018-09-25T07:01:09.749Z,934.06
2018-09-25T07:02:10.056Z,934.09
2018-09-25T07:03:09.776Z,934.04
2018-09-25T07:04:09.732Z,934.07
2018-09-25T07:05:09.708Z,934.05
2018-09-25T07:06:09.699Z,934.00
2018-09-25T07:07:09.675Z,934.01
2018-09-25T07:08:09.794Z,933.96
2018-09-25T07:09:09.657Z,933.95
2018-09-25T07:10:09.771Z,933.97
2018-09-25T07:11:09.667Z,933.95
2018-09-25T07:12:09.629Z,933.96
2018-09-25T07:13:09.659Z,933.93
2018-09-25T07:14:09.857Z,933.98
2018-09-25T07:15:09.627Z,933.96
2018-09-25T07:16:09.625Z,933.93
2018-09-25T07:17:09.593Z,933.90
2018-09-25T07:18:09.594Z,933.85
2018-09-25T07:19:09.591Z,933.86
2018-09-25T07:20:09.718Z,933.85
2018-09-25T07:21:09.559Z,933.79
2018-09-25T07:22:09.554Z,933.80
2018-09-25T07:23:09.570Z,933.76
2018-09-25T07:24:09.538Z,933.73
2018-09-25T07:25:09.555Z,933.72
2018-09-25T07:26:09.622Z,933.70
2018-09-25T07:27:09.493Z,933.66
2018-09-25T07:28:09.504Z,933.64
2018-09-25T07:29:09.497Z,933.68
2018-09-25T07:30:09.497Z,933.65
2018-09-25T07:31:09.797Z,933.71
2018-09-25T07:32:09.472Z,933.70
2018-09-25T07:33:09.455Z,933.71
2018-09-25T07:34:09.451Z,933.69
2018-09-25T07:35:09.430Z,933.69
2018-09-25T07:36:09.432Z,933.66
2018-09-25T07:37:09.471Z,933.66
2018-09-25T07:38:09.400Z,933.63
2018-09-25T07:39:09.409Z,933.58
2018-09-25T07:40:09.431Z,933.54
2018-09-25T07:41:09.375Z,933.50
2018-09-25T07:42:09.602Z,933.46
2018-09-25T07:43:09.370Z,933.42
2018-09-25T07:44:09.384Z,933.39
2018-09-25T07:45:09.400Z,933.36
2018-09-25T07:46:09.339Z,933.33
2018-09-25T07:47:09.438Z,933.35
2018-09-25T07:48:09.361Z,933.32
2018-09-25T07:49:09.299Z,933.32
2018-09-25T07:50:09.339Z,933.29
2018-09-25T07:51:09.290Z,933.27
2018-09-25T07:52:09.288Z,933.29
2018-09-25T07:53:09.283Z,933.25
2018-09-25T07:54:09.275Z,933.23
2018-09-25T07:55:09.267Z,933.23
2018-09-25T07:56:09.237Z,933.20
2018-09-25T07:57:09.249Z,933.22
2018-09-25T07:58:09.235Z,933.14
2018-09-25T07:59:09.222Z,933.16
2018-09-25T08:00:09.212Z,933.10
2018-09-25T08:01:09.216Z,933.08
2018-09-25T08:02:09.226Z,932.99
2018-09-25T08:03:09.261Z,932.93
2018-09-25T08:04:09.212Z,932.91
2018-09-25T08:05:09.177Z,932.89
2018-09-25T08:06:09.154Z,932.88
2018-09-25T08:07:09.164Z,932.86
2018-09-25T08:08:09.399Z,932.86
2018-09-25T08:09:09.184Z,932.79
2018-09-25T08:10:09.122Z,932.80
2018-09-25T08:11:09.141Z,932.79
2018-09-25T08:12:09.108Z,932.77
2018-09-25T08:13:09.095Z,932.81
2018-09-25T08:14:09.201Z,932.84
2018-09-25T08:15:09.095Z,932.83
2018-09-25T08:16:09.055Z,932.85
2018-09-25T08:17:09.059Z,932.84
2018-09-25T08:18:09.047Z,932.88
2018-09-25T08:19:09.741Z,932.85
2018-09-25T08:20:09.040Z,932.91
2018-09-25T08:21:09.020Z,932.91
2018-09-25T08:22:09.029Z,932.94
2018-09-25T08:23:09.020Z,932.97
2018-09-25T08:24:08.998Z,932.94
2018-09-25T08:25:08.972Z,933.01
2018-09-25T08:26:08.998Z,932.98
2018-09-25T08:27:08.967Z,932.94
2018-09-25T08:28:08.973Z,932.95
2018-09-25T08:29:08.990Z,932.93
2018-09-25T08:30:09.213Z,932.92
2018-09-25T08:31:09.001Z,932.93
2018-09-25T08:32:08.914Z,932.95
2018-09-25T08:33:08.913Z,932.93
2018-09-25T08:34:08.927Z,932.98
2018-09-25T08:35:09.051Z,932.98
2018-09-25T08:36:08.895Z,932.96
2018-09-25T08:37:08.925Z,933.02
2018-09-25T08:38:08.892Z,933.02
2018-09-25T08:39:08.962Z,933.05
2018-09-25T08:40:08.868Z,933.02
2018-09-25T08:41:09.163Z,933.01
2018-09-25T08:42:08.877Z,933.03
2018-09-25T08:43:08.837Z,932.95
2018-09-25T08:44:08.807Z,932.91
2018-09-25T08:45:08.853Z,932.84
2018-09-25T08:46:08.817Z,932.81
2018-09-25T08:47:09.046Z,932.80
2018-09-25T08:48:08.779Z,932.79
2018-09-25T08:49:08.775Z,932.80
2018-09-25T08:50:08.755Z,932.79
2018-09-25T08:51:08.760Z,932.80
2018-09-25T08:52:08.760Z,932.82
2018-09-25T08:53:08.752Z,932.86
2018-09-25T08:54:08.751Z,932.93
2018-09-25T08:55:08.718Z,932.94
2018-09-25T08:56:08.720Z,932.96
2018-09-25T08:57:08.704Z,933.01
2018-09-25T08:58:08.686Z,933.09
2018-09-25T08:59:08.704Z,933.12
2018-09-25T09:00:08.669Z,933.14
2018-09-25T09:01:08.692Z,933.11
2018-09-25T09:02:08.649Z,933.15
2018-09-25T09:03:08.891Z,933.24
2018-09-25T09:04:08.639Z,933.20
2018-09-25T09:05:08.627Z,933.24
2018-09-25T09:06:08.610Z,933.27
2018-09-25T09:07:08.629Z,933.31
2018-09-25T09:08:08.604Z,933.33
2018-09-25T09:09:08.618Z,933.31
2018-09-25T09:10:08.596Z,933.35
2018-09-25T09:11:08.606Z,933.36
2018-09-25T09:12:08.583Z,933.41
2018-09-25T09:13:08.618Z,933.44
2018-09-25T09:14:08.577Z,933.41
2018-09-25T09:15:08.553Z,933.49
2018-09-25T09:16:08.556Z,933.51
2018-09-25T09:17:08.530Z,933.50
2018-09-25T09:18:08.533Z,933.52
2018-09-25T09:19:08.502Z,933.56
2018-09-25T09:20:08.517Z,933.50
2018-09-25T09:21:08.544Z,933.45
2018-09-25T09:22:08.480Z,933.44
2018-09-25T09:23:08.488Z,933.48
2018-09-25T09:24:08.762Z,933.51
2018-09-25T09:25:08.441Z,933.50
2018-09-25T09:26:08.456Z,933.54
2018-09-25T09:27:08.441Z,933.57
2018-09-25T09:28:08.434Z,933.60
2018-09-25T09:29:08.428Z,933.60
2018-09-25T09:30:08.668Z,933.62
2018-09-25T09:31:08.404Z,933.62
2018-09-25T09:32:08.403Z,933.58
2018-09-25T09:33:08.397Z,933.58
2018-09-25T09:34:08.386Z,933.58
2018-09-25T09:35:08.396Z,933.52
2018-09-25T09:36:08.357Z,933.53
2018-09-25T09:37:08.365Z,933.57
2018-09-25T09:38:08.341Z,933.58
2018-09-25T09:39:08.351Z,933.58
2018-09-25T09:40:08.435Z,933.59
2018-09-25T09:41:08.407Z,933.62
2018-09-25T09:42:08.305Z,933.61
2018-09-25T09:43:08.304Z,933.66
2018-09-25T09:44:08.307Z,933.72
2018-09-25T09:45:08.535Z,933.75
2018-09-25T09:46:08.321Z,933.76
2018-09-25T09:47:08.284Z,933.73
2018-09-25T09:48:08.285Z,933.69
2018-09-25T09:49:08.241Z,933.77
2018-09-25T09:50:08.496Z,933.78
2018-09-25T09:51:08.246Z,933.79
2018-09-25T09:52:08.245Z,933.78
2018-09-25T09:53:08.236Z,933.82
2018-09-25T09:54:08.204Z,933.76
2018-09-25T09:55:08.307Z,933.81
2018-09-25T09:56:08.210Z,933.80
2018-09-25T09:57:08.173Z,933.79
2018-09-25T09:58:08.160Z,933.79
2018-09-25T09:59:08.221Z,933.80
2018-09-25T10:00:08.158Z,933.78
2018-09-25T10:01:08.467Z,933.76
2018-09-25T10:02:08.146Z,933.72
2018-09-25T10:03:08.125Z,933.75
2018-09-25T10:04:08.149Z,933.73
2018-09-25T10:05:08.131Z,933.76
2018-09-25T10:06:08.215Z,933.79
2018-09-25T10:07:08.122Z,933.72
2018-09-25T10:08:08.102Z,933.72
2018-09-25T10:09:08.095Z,933.69
2018-09-25T10:10:08.080Z,933.68
2018-09-25T10:11:08.072Z,933.68
2018-09-25T10:12:08.309Z,933.66
2018-09-25T10:13:08.046Z,933.71
2018-09-25T10:14:08.042Z,933.71
2018-09-25T10:15:08.028Z,933.63
2018-09-25T10:16:08.019Z,933.67
2018-09-25T10:17:08.009Z,933.66
2018-09-25T10:18:08.092Z,933.64
2018-09-25T10:19:08.001Z,933.61
2018-09-25T10:20:07.981Z,933.62
2018-09-25T10:21:07.994Z,933.59
2018-09-25T10:22:07.977Z,933.62
2018-09-25T10:23:08.014Z,933.64
2018-09-25T10:24:07.950Z,933.65
2018-09-25T10:25:07.947Z,933.66
2018-09-25T10:26:07.923Z,933.71
2018-09-25T10:27:07.936Z,933.69
2018-09-25T10:28:07.911Z,933.72
2018-09-25T10:29:07.920Z,933.68
2018-09-25T10:30:07.909Z,933.62
2018-09-25T10:31:07.894Z,933.67
2018-09-25T10:32:07.885Z,933.76
2018-09-25T10:33:07.888Z,933.71
2018-09-25T10:34:07.929Z,933.71
2018-09-25T10:35:07.856Z,933.66
2018-09-25T10:36:07.834Z,933.66
2018-09-25T10:37:07.852Z,933.70
2018-09-25T10:38:07.843Z,933.70
2018-09-25T10:39:07.838Z,933.67
2018-09-25T10:40:07.828Z,933.70
2018-09-25T10:41:07.860Z,933.70
2018-09-25T10:42:07.793Z,933.72
2018-09-25T10:43:07.849Z,933.74
2018-09-25T10:44:08.101Z,933.75
2018-09-25T10:45:07.778Z,933.79
2018-09-25T10:46:07.775Z,933.83
2018-09-25T10:47:07.784Z,933.82
2018-09-25T10:48:07.774Z,933.76
2018-09-25T10:49:07.770Z,933.78
2018-09-25T10:50:07.806Z,933.77
2018-09-25T10:51:07.749Z,933.79
2018-09-25T10:52:07.723Z,933.79
2018-09-25T10:53:07.708Z,933.80
2018-09-25T10:54:07.752Z,933.81
2018-09-25T10:55:08.005Z,933.83
2018-09-25T10:56:07.828Z,933.81
2018-09-25T10:57:07.701Z,933.85
2018-09-25T10:58:07.678Z,933.84
2018-09-25T10:59:07.669Z,933.87
2018-09-25T11:00:07.654Z,933.92
2018-09-25T11:01:07.895Z,933.99
2018-09-25T11:02:07.630Z,933.95
2018-09-25T11:03:07.740Z,933.99
2018-09-25T11:04:07.610Z,934.09
2018-09-25T11:05:07.616Z,934.11
2018-09-25T11:06:07.591Z,934.08
2018-09-25T11:07:07.852Z,934.14
2018-09-25T11:08:07.580Z,934.17
2018-09-25T11:09:07.581Z,934.19
2018-09-25T11:10:07.583Z,934.19
2018-09-25T11:11:07.577Z,934.18
2018-09-25T11:12:07.557Z,934.18
2018-09-25T11:13:07.612Z,934.22
2018-09-25T11:14:07.568Z,934.20
2018-09-25T11:15:07.545Z,934.19
2018-09-25T11:16:07.526Z,934.20
2018-09-25T11:17:07.500Z,934.24
2018-09-25T11:18:07.501Z,934.27
2018-09-25T11:19:07.499Z,934.27
2018-09-25T11:20:07.488Z,934.35
2018-09-25T11:21:07.489Z,934.39
2018-09-25T11:22:07.526Z,934.39
2018-09-25T11:23:07.766Z,934.45
2018-09-25T11:24:07.494Z,934.48
2018-09-25T11:25:07.476Z,934.48
2018-09-25T11:26:07.468Z,934.49
2018-09-25T11:27:07.437Z,934.53
2018-09-25T11:28:07.545Z,934.54
2018-09-25T11:29:07.410Z,934.55
2018-09-25T11:30:07.428Z,934.56
2018-09-25T11:31:07.423Z,934.60
2018-09-25T11:32:07.450Z,934.58
2018-09-25T11:33:07.398Z,934.57
2018-09-25T11:34:07.708Z,934.56
2018-09-25T11:35:07.436Z,934.49
2018-09-25T11:36:07.394Z,934.54
2018-09-25T11:37:07.377Z,934.53
2018-09-25T11:38:07.357Z,934.51
2018-09-25T11:39:07.463Z,934.47
2018-09-25T11:40:07.351Z,934.47
2018-09-25T11:41:07.374Z,934.51
2018-09-25T11:42:07.349Z,934.50
2018-09-25T11:43:07.335Z,934.51
2018-09-25T11:44:07.319Z,934.57
2018-09-25T11:45:07.626Z,934.60
2018-09-25T11:46:07.340Z,934.57
2018-09-25T11:47:07.373Z,934.59
2018-09-25T11:48:07.313Z,934.62
2018-09-25T11:49:07.301Z,934.60
2018-09-25T11:50:07.286Z,934.58
2018-09-25T11:51:07.280Z,934.60
2018-09-25T11:52:07.266Z,934.60
2018-09-25T11:53:07.268Z,934.61
2018-09-25T11:54:07.262Z,934.64
2018-09-25T11:55:07.264Z,934.68
2018-09-25T11:56:07.266Z,934.66
2018-09-25T11:57:07.245Z,934.66
2018-09-25T11:58:07.245Z,934.66
2018-09-25T11:59:07.231Z,934.60
2018-09-25T12:00:07.207Z,934.65
2018-09-25T12:01:07.211Z,934.63
2018-09-25T12:02:07.411Z,934.66
2018-09-25T12:03:07.207Z,934.68
2018-09-25T12:04:07.199Z,934.71
2018-09-25T12:05:07.194Z,934.74
2018-09-25T12:06:08.040Z,934.71
2018-09-25T12:07:07.169Z,934.75
2018-09-25T12:08:07.164Z,934.85
2018-09-25T12:09:07.170Z,934.78
2018-09-25T12:10:07.156Z,934.84
2018-09-25T12:11:07.155Z,934.84
2018-09-25T12:12:07.141Z,934.82
2018-09-25T12:13:07.140Z,934.85
2018-09-25T12:14:07.501Z,934.91
2018-09-25T12:15:07.141Z,934.90
2018-09-25T12:16:07.159Z,934.86
2018-09-25T12:17:07.119Z,934.96
2018-09-25T12:18:07.104Z,934.98
2018-09-25T12:19:07.112Z,934.96
2018-09-25T12:20:07.150Z,934.99
2018-09-25T12:21:07.092Z,934.94
2018-09-25T12:22:07.078Z,935.02
2018-09-25T12:23:07.069Z,935.02
2018-09-25T12:24:07.099Z,935.01
2018-09-25T12:25:07.065Z,935.05
2018-09-25T12:26:07.074Z,935.03
2018-09-25T12:27:07.065Z,935.05
2018-09-25T12:28:07.128Z,935.02